Terminal Aerodrome Forecast
Issued by NWS

Home | Current Version | Previous Version | Text Only | Print | Product List | Glossary On
Versions: 1 2 3 4 5 6 7 8 9 10 11 12 13 14 15 16
394
FTUS43 KDLH 231137
TAFHYR
TAF
KHYR 231137Z 2312/2412 16009KT P6SM OVC070
     FM232000 17010KT P6SM VCSH OVC030
     FM232300 17008KT 5SM -RA OVC040
     FM240100 17007KT 5SM -RA OVC015
     FM240300 17005KT 5SM -FZRA OVC008
     FM240500 16004KT 3SM -RA OVC003=

USA.gov is the U.S. government's official web portal to all federal, state and local government web resources and services.